sensor_id;sensor_type;location;lat;lon;timestamp;pressure;altitude;pressure_sealevel;temperature
76713;BMP280;65640;43.154;25.658;2023-06-22T00:01:03;100861.47;;;20.76
76713;BMP280;65640;43.154;25.658;2023-06-22T00:03:29;100861.38;;;20.73
76713;BMP280;65640;43.154;25.658;2023-06-22T00:05:54;100863.66;;;20.74
76713;BMP280;65640;43.154;25.658;2023-06-22T00:08:19;100867.34;;;20.70
76713;BMP280;65640;43.154;25.658;2023-06-22T00:10:45;100863.03;;;20.77
76713;BMP280;65640;43.154;25.658;2023-06-22T00:13:12;100869.78;;;20.75
76713;BMP280;65640;43.154;25.658;2023-06-22T00:15:39;100868.66;;;20.64
76713;BMP280;65640;43.154;25.658;2023-06-22T00:18:09;100865.91;;;20.60
76713;BMP280;65640;43.154;25.658;2023-06-22T00:20:36;100873.88;;;20.60
76713;BMP280;65640;43.154;25.658;2023-06-22T00:23:05;100882.97;;;20.59
76713;BMP280;65640;43.154;25.658;2023-06-22T00:25:37;100881.16;;;20.51
76713;BMP280;65640;43.154;25.658;2023-06-22T00:28:03;100881.09;;;20.60
76713;BMP280;65640;43.154;25.658;2023-06-22T00:30:30;100872.06;;;20.52
76713;BMP280;65640;43.154;25.658;2023-06-22T00:32:56;100870.63;;;20.42
76713;BMP280;65640;43.154;25.658;2023-06-22T00:35:21;100873.78;;;20.36
76713;BMP280;65640;43.154;25.658;2023-06-22T00:37:47;100866.47;;;20.33
76713;BMP280;65640;43.154;25.658;2023-06-22T00:40:12;100873.22;;;20.30
76713;BMP280;65640;43.154;25.658;2023-06-22T00:42:39;100871.06;;;20.45
76713;BMP280;65640;43.154;25.658;2023-06-22T00:45:06;100863.75;;;20.41
76713;BMP280;65640;43.154;25.658;2023-06-22T00:47:31;100865.19;;;20.51
76713;BMP280;65640;43.154;25.658;2023-06-22T00:49:57;100865.09;;;20.48
76713;BMP280;65640;43.154;25.658;2023-06-22T00:52:24;100865.97;;;20.39
76713;BMP280;65640;43.154;25.658;2023-06-22T00:54:54;100875.81;;;20.39
76713;BMP280;65640;43.154;25.658;2023-06-22T00:57:20;100876.25;;;20.41
76713;BMP280;65640;43.154;25.658;2023-06-22T00:59:47;100877.03;;;20.41
76713;BMP280;65640;43.154;25.658;2023-06-22T01:02:13;100874.91;;;20.23
76713;BMP280;65640;43.154;25.658;2023-06-22T01:04:40;100880.59;;;20.13
76713;BMP280;65640;43.154;25.658;2023-06-22T01:07:22;100874.81;;;20.11
76713;BMP280;65640;43.154;25.658;2023-06-22T01:09:57;100877.63;;;19.93
76713;BMP280;65640;43.154;25.658;2023-06-22T01:12:26;100881.25;;;19.89
76713;BMP280;65640;43.154;25.658;2023-06-22T01:15:44;100884.75;;;19.81
76713;BMP280;65640;43.154;25.658;2023-06-22T01:17:43;100874.03;;;19.89
76713;BMP280;65640;43.154;25.658;2023-06-22T01:20:10;100873.59;;;19.87
76713;BMP280;65640;43.154;25.658;2023-06-22T01:23:06;100871.66;;;19.97
76713;BMP280;65640;43.154;25.658;2023-06-22T01:26:06;100871.81;;;20.00
76713;BMP280;65640;43.154;25.658;2023-06-22T01:28:50;100866.59;;;20.04
76713;BMP280;65640;43.154;25.658;2023-06-22T01:31:20;100863.50;;;20.02
76713;BMP280;65640;43.154;25.658;2023-06-22T01:33:51;100869.31;;;19.95
76713;BMP280;65640;43.154;25.658;2023-06-22T01:36:19;100867.63;;;19.90
76713;BMP280;65640;43.154;25.658;2023-06-22T01:38:45;100873.84;;;19.95
76713;BMP280;65640;43.154;25.658;2023-06-22T01:41:11;100882.66;;;20.07
76713;BMP280;65640;43.154;25.658;2023-06-22T01:43:37;100887.47;;;20.14
76713;BMP280;65640;43.154;25.658;2023-06-22T01:46:03;100880.13;;;20.11
76713;BMP280;65640;43.154;25.658;2023-06-22T01:48:30;100882.94;;;19.93
76713;BMP280;65640;43.154;25.658;2023-06-22T01:50:55;100888.78;;;19.87
76713;BMP280;65640;43.154;25.658;2023-06-22T01:53:24;100888.31;;;19.85
76713;BMP280;65640;43.154;25.658;2023-06-22T01:55:50;100882.44;;;19.79
76713;BMP280;65640;43.154;25.658;2023-06-22T01:58:16;100883.31;;;19.83
76713;BMP280;65640;43.154;25.658;2023-06-22T02:00:48;100886.19;;;19.99
76713;BMP280;65640;43.154;25.658;2023-06-22T02:03:19;100897.66;;;19.91
76713;BMP280;65640;43.154;25.658;2023-06-22T02:05:55;100898.94;;;19.85
76713;BMP280;65640;43.154;25.658;2023-06-22T02:08:28;100897.00;;;19.73
76713;BMP280;65640;43.154;25.658;2023-06-22T02:10:57;100895.91;;;19.74
76713;BMP280;65640;43.154;25.658;2023-06-22T02:13:24;100907.44;;;19.78
76713;BMP280;65640;43.154;25.658;2023-06-22T02:15:50;100911.06;;;19.74
76713;BMP280;65640;43.154;25.658;2023-06-22T02:18:16;100909.00;;;19.79
76713;BMP280;65640;43.154;25.658;2023-06-22T02:20:41;100910.69;;;19.84
76713;BMP280;65640;43.154;25.658;2023-06-22T02:23:07;100909.63;;;19.76
76713;BMP280;65640;43.154;25.658;2023-06-22T02:25:33;100913.41;;;19.75
76713;BMP280;65640;43.154;25.658;2023-06-22T02:27:59;100924.31;;;19.82
76713;BMP280;65640;43.154;25.658;2023-06-22T02:30:24;100924.66;;;19.72
76713;BMP280;65640;43.154;25.658;2023-06-22T02:32:50;100928.63;;;19.66
76713;BMP280;65640;43.154;25.658;2023-06-22T02:35:24;100936.59;;;19.66
76713;BMP280;65640;43.154;25.658;2023-06-22T02:37:49;100940.09;;;19.58
76713;BMP280;65640;43.154;25.658;2023-06-22T02:40:17;100942.94;;;19.53
76713;BMP280;65640;43.154;25.658;2023-06-22T02:42:42;100936.81;;;19.53
76713;BMP280;65640;43.154;25.658;2023-06-22T02:45:08;100937.88;;;19.60
76713;BMP280;65640;43.154;25.658;2023-06-22T02:47:33;100935.88;;;19.57
76713;BMP280;65640;43.154;25.658;2023-06-22T02:49:59;100937.88;;;19.60
76713;BMP280;65640;43.154;25.658;2023-06-22T02:52:24;100938.56;;;19.78
76713;BMP280;65640;43.154;25.658;2023-06-22T02:54:49;100934.81;;;19.79
76713;BMP280;65640;43.154;25.658;2023-06-22T02:57:15;100936.88;;;19.73
76713;BMP280;65640;43.154;25.658;2023-06-22T02:59:41;100941.44;;;19.64
76713;BMP280;65640;43.154;25.658;2023-06-22T03:02:07;100940.00;;;19.75
76713;BMP280;65640;43.154;25.658;2023-06-22T03:04:34;100944.06;;;19.93
76713;BMP280;65640;43.154;25.658;2023-06-22T03:06:59;100947.03;;;20.01
76713;BMP280;65640;43.154;25.658;2023-06-22T03:09:27;100944.34;;;20.01
76713;BMP280;65640;43.154;25.658;2023-06-22T03:11:56;100949.59;;;19.88
76713;BMP280;65640;43.154;25.658;2023-06-22T03:14:21;100949.19;;;19.78
76713;BMP280;65640;43.154;25.658;2023-06-22T03:16:47;100957.75;;;19.83
76713;BMP280;65640;43.154;25.658;2023-06-22T03:19:12;100959.97;;;19.81
76713;BMP280;65640;43.154;25.658;2023-06-22T03:21:38;100953.31;;;19.67
76713;BMP280;65640;43.154;25.658;2023-06-22T03:24:05;100954.72;;;19.64
76713;BMP280;65640;43.154;25.658;2023-06-22T03:26:30;100955.19;;;19.66
76713;BMP280;65640;43.154;25.658;2023-06-22T03:28:56;100962.06;;;19.67
76713;BMP280;65640;43.154;25.658;2023-06-22T03:31:22;100960.41;;;19.83
76713;BMP280;65640;43.154;25.658;2023-06-22T03:33:49;100960.34;;;19.92
76713;BMP280;65640;43.154;25.658;2023-06-22T03:36:15;100961.09;;;20.01
76713;BMP280;65640;43.154;25.658;2023-06-22T03:38:45;100959.22;;;20.02
76713;BMP280;65640;43.154;25.658;2023-06-22T03:41:10;100961.47;;;20.12
76713;BMP280;65640;43.154;25.658;2023-06-22T03:43:35;100962.25;;;20.12
76713;BMP280;65640;43.154;25.658;2023-06-22T03:46:01;100973.78;;;20.37
76713;BMP280;65640;43.154;25.658;2023-06-22T03:48:26;100971.13;;;20.37
76713;BMP280;65640;43.154;25.658;2023-06-22T03:50:51;100971.13;;;20.37
76713;BMP280;65640;43.154;25.658;2023-06-22T03:53:17;100966.72;;;20.41
76713;BMP280;65640;43.154;25.658;2023-06-22T03:55:50;100966.53;;;20.46
76713;BMP280;65640;43.154;25.658;2023-06-22T03:58:16;100972.03;;;20.41
76713;BMP280;65640;43.154;25.658;2023-06-22T04:00:48;100970.97;;;20.54
76713;BMP280;65640;43.154;25.658;2023-06-22T04:03:14;100974.72;;;20.53
76713;BMP280;65640;43.154;25.658;2023-06-22T04:05:40;100976.50;;;20.49
76713;BMP280;65640;43.154;25.658;2023-06-22T04:08:06;100967.75;;;20.49
76713;BMP280;65640;43.154;25.658;2023-06-22T04:10:31;100972.78;;;20.62
76713;BMP280;65640;43.154;25.658;2023-06-22T04:12:57;100974.34;;;20.63
76713;BMP280;65640;43.154;25.658;2023-06-22T04:15:22;100979.69;;;20.75
76713;BMP280;65640;43.154;25.658;2023-06-22T04:17:48;100984.69;;;20.77
76713;BMP280;65640;43.154;25.658;2023-06-22T04:20:13;100986.56;;;20.76
76713;BMP280;65640;43.154;25.658;2023-06-22T04:22:39;100984.03;;;20.80
76713;BMP280;65640;43.154;25.658;2023-06-22T04:25:06;100980.03;;;20.86
76713;BMP280;65640;43.154;25.658;2023-06-22T04:27:33;100972.84;;;20.99
76713;BMP280;65640;43.154;25.658;2023-06-22T04:30:03;100983.53;;;21.23
76713;BMP280;65640;43.154;25.658;2023-06-22T04:32:29;100980.47;;;21.33
76713;BMP280;65640;43.154;25.658;2023-06-22T04:34:54;100982.25;;;21.53
76713;BMP280;65640;43.154;25.658;2023-06-22T04:37:20;100980.88;;;21.71
76713;BMP280;65640;43.154;25.658;2023-06-22T04:39:48;100992.00;;;21.85
76713;BMP280;65640;43.154;25.658;2023-06-22T04:42:14;100991.72;;;21.90
76713;BMP280;65640;43.154;25.658;2023-06-22T04:44:40;100990.34;;;22.09
76713;BMP280;65640;43.154;25.658;2023-06-22T04:47:07;100991.75;;;22.30
76713;BMP280;65640;43.154;25.658;2023-06-22T04:49:34;100994.25;;;22.39
76713;BMP280;65640;43.154;25.658;2023-06-22T04:52:04;100998.63;;;22.59
76713;BMP280;65640;43.154;25.658;2023-06-22T04:54:30;100990.03;;;22.81
76713;BMP280;65640;43.154;25.658;2023-06-22T04:57:03;101002.00;;;22.72
76713;BMP280;65640;43.154;25.658;2023-06-22T04:59:30;101002.59;;;22.65
76713;BMP280;65640;43.154;25.658;2023-06-22T05:02:00;100987.38;;;22.81
76713;BMP280;65640;43.154;25.658;2023-06-22T05:04:27;100992.03;;;23.00
76713;BMP280;65640;43.154;25.658;2023-06-22T05:06:54;100989.59;;;23.26
76713;BMP280;65640;43.154;25.658;2023-06-22T05:09:20;100994.44;;;23.36
76713;BMP280;65640;43.154;25.658;2023-06-22T05:11:46;100983.34;;;23.53
76713;BMP280;65640;43.154;25.658;2023-06-22T05:14:12;100989.72;;;23.65
76713;BMP280;65640;43.154;25.658;2023-06-22T05:16:38;100984.47;;;23.87
76713;BMP280;65640;43.154;25.658;2023-06-22T05:19:03;100978.94;;;23.99
76713;BMP280;65640;43.154;25.658;2023-06-22T05:21:29;100981.09;;;24.10
76713;BMP280;65640;43.154;25.658;2023-06-22T05:23:55;100985.84;;;24.20
76713;BMP280;65640;43.154;25.658;2023-06-22T05:26:25;100988.94;;;24.41
76713;BMP280;65640;43.154;25.658;2023-06-22T05:28:51;100997.09;;;24.48
76713;BMP280;65640;43.154;25.658;2023-06-22T05:31:17;100993.97;;;24.23
76713;BMP280;65640;43.154;25.658;2023-06-22T05:33:43;100996.41;;;24.32
76713;BMP280;65640;43.154;25.658;2023-06-22T05:36:09;100998.94;;;24.44
76713;BMP280;65640;43.154;25.658;2023-06-22T05:38:36;100997.22;;;24.36
76713;BMP280;65640;43.154;25.658;2023-06-22T05:41:01;100999.84;;;24.51
76713;BMP280;65640;43.154;25.658;2023-06-22T05:43:27;100993.34;;;24.75
76713;BMP280;65640;43.154;25.658;2023-06-22T05:45:52;100996.97;;;24.63
76713;BMP280;65640;43.154;25.658;2023-06-22T05:48:18;100987.66;;;24.80
76713;BMP280;65640;43.154;25.658;2023-06-22T05:50:43;100996.00;;;24.98
76713;BMP280;65640;43.154;25.658;2023-06-22T05:53:09;100991.59;;;25.09
76713;BMP280;65640;43.154;25.658;2023-06-22T05:55:34;100990.03;;;25.08
76713;BMP280;65640;43.154;25.658;2023-06-22T05:57:59;100985.56;;;25.15
76713;BMP280;65640;43.154;25.658;2023-06-22T06:00:25;100991.34;;;25.17
76713;BMP280;65640;43.154;25.658;2023-06-22T06:02:50;100994.00;;;24.91
76713;BMP280;65640;43.154;25.658;2023-06-22T06:05:16;101000.97;;;24.96
76713;BMP280;65640;43.154;25.658;2023-06-22T06:07:42;101004.19;;;25.08
76713;BMP280;65640;43.154;25.658;2023-06-22T06:10:08;101002.19;;;25.54
76713;BMP280;65640;43.154;25.658;2023-06-22T06:12:33;101009.69;;;26.01
76713;BMP280;65640;43.154;25.658;2023-06-22T06:14:59;101000.78;;;26.30
76713;BMP280;65640;43.154;25.658;2023-06-22T06:17:24;101005.38;;;26.30
76713;BMP280;65640;43.154;25.658;2023-06-22T06:19:49;101003.63;;;26.48
76713;BMP280;65640;43.154;25.658;2023-06-22T06:22:15;101003.81;;;26.29
76713;BMP280;65640;43.154;25.658;2023-06-22T06:24:40;101006.38;;;26.18
76713;BMP280;65640;43.154;25.658;2023-06-22T06:27:06;101009.06;;;26.18
76713;BMP280;65640;43.154;25.658;2023-06-22T06:29:31;101006.16;;;26.30
76713;BMP280;65640;43.154;25.658;2023-06-22T06:31:57;101004.44;;;26.15
76713;BMP280;65640;43.154;25.658;2023-06-22T06:34:22;101006.44;;;26.22
76713;BMP280;65640;43.154;25.658;2023-06-22T06:36:47;100996.19;;;26.34
76713;BMP280;65640;43.154;25.658;2023-06-22T06:39:13;100991.81;;;26.60
76713;BMP280;65640;43.154;25.658;2023-06-22T06:41:38;100988.19;;;26.89
76713;BMP280;65640;43.154;25.658;2023-06-22T06:44:04;100993.78;;;27.17
76713;BMP280;65640;43.154;25.658;2023-06-22T06:46:29;100993.81;;;27.31
76713;BMP280;65640;43.154;25.658;2023-06-22T06:48:54;100992.63;;;27.25
76713;BMP280;65640;43.154;25.658;2023-06-22T06:51:20;100984.59;;;27.29
76713;BMP280;65640;43.154;25.658;2023-06-22T06:53:45;100984.00;;;27.67
76713;BMP280;65640;43.154;25.658;2023-06-22T06:56:11;100987.16;;;27.90
76713;BMP280;65640;43.154;25.658;2023-06-22T06:58:40;100978.69;;;28.06
76713;BMP280;65640;43.154;25.658;2023-06-22T07:01:06;100979.09;;;28.11
76713;BMP280;65640;43.154;25.658;2023-06-22T07:03:31;100980.25;;;28.32
76713;BMP280;65640;43.154;25.658;2023-06-22T07:05:58;100977.94;;;28.13
76713;BMP280;65640;43.154;25.658;2023-06-22T07:08:23;100977.91;;;28.20
76713;BMP280;65640;43.154;25.658;2023-06-22T07:10:49;100983.34;;;28.48
76713;BMP280;65640;43.154;25.658;2023-06-22T07:13:14;100979.47;;;28.45
76713;BMP280;65640;43.154;25.658;2023-06-22T07:15:40;100982.59;;;28.58
76713;BMP280;65640;43.154;25.658;2023-06-22T07:18:05;100979.06;;;28.71
76713;BMP280;65640;43.154;25.658;2023-06-22T07:20:31;100979.47;;;28.81
76713;BMP280;65640;43.154;25.658;2023-06-22T07:22:56;100977.09;;;28.90
76713;BMP280;65640;43.154;25.658;2023-06-22T07:25:21;100977.06;;;29.07
76713;BMP280;65640;43.154;25.658;2023-06-22T07:27:56;100974.34;;;29.14
76713;BMP280;65640;43.154;25.658;2023-06-22T07:30:22;100988.66;;;28.94
76713;BMP280;65640;43.154;25.658;2023-06-22T07:32:48;100984.41;;;29.03
76713;BMP280;65640;43.154;25.658;2023-06-22T07:35:13;100983.19;;;29.15
76713;BMP280;65640;43.154;25.658;2023-06-22T07:37:41;100983.66;;;28.96
76713;BMP280;65640;43.154;25.658;2023-06-22T07:40:07;100993.28;;;28.93
76713;BMP280;65640;43.154;25.658;2023-06-22T07:42:33;100982.44;;;29.07
76713;BMP280;65640;43.154;25.658;2023-06-22T07:44:58;100986.72;;;28.98
76713;BMP280;65640;43.154;25.658;2023-06-22T07:47:23;100984.47;;;28.79
76713;BMP280;65640;43.154;25.658;2023-06-22T07:49:51;100975.56;;;28.89
76713;BMP280;65640;43.154;25.658;2023-06-22T07:52:19;100978.97;;;29.10
76713;BMP280;65640;43.154;25.658;2023-06-22T07:54:46;100971.66;;;29.14
76713;BMP280;65640;43.154;25.658;2023-06-22T07:57:11;100972.72;;;29.27
76713;BMP280;65640;43.154;25.658;2023-06-22T07:59:37;100970.78;;;29.35
76713;BMP280;65640;43.154;25.658;2023-06-22T08:02:02;100969.09;;;29.62
76713;BMP280;65640;43.154;25.658;2023-06-22T08:04:28;100965.84;;;29.88
76713;BMP280;65640;43.154;25.658;2023-06-22T08:06:56;100970.91;;;29.83
76713;BMP280;65640;43.154;25.658;2023-06-22T08:09:21;100978.44;;;29.47
76713;BMP280;65640;43.154;25.658;2023-06-22T08:11:46;100974.53;;;29.55
76713;BMP280;65640;43.154;25.658;2023-06-22T08:14:13;100960.56;;;29.71
76713;BMP280;65640;43.154;25.658;2023-06-22T08:16:38;100961.34;;;29.71
76713;BMP280;65640;43.154;25.658;2023-06-22T08:19:03;100967.59;;;29.54
76713;BMP280;65640;43.154;25.658;2023-06-22T08:21:29;100967.53;;;29.68
76713;BMP280;65640;43.154;25.658;2023-06-22T08:23:54;100969.13;;;30.14
76713;BMP280;65640;43.154;25.658;2023-06-22T08:26:20;100967.47;;;30.64
76713;BMP280;65640;43.154;25.658;2023-06-22T08:28:46;100963.53;;;30.72
76713;BMP280;65640;43.154;25.658;2023-06-22T08:31:12;100966.47;;;30.85
76713;BMP280;65640;43.154;25.658;2023-06-22T08:33:39;100968.78;;;30.86
76713;BMP280;65640;43.154;25.658;2023-06-22T08:36:04;100974.00;;;30.66
76713;BMP280;65640;43.154;25.658;2023-06-22T08:38:31;100969.66;;;30.80
76713;BMP280;65640;43.154;25.658;2023-06-22T08:40:57;100969.75;;;31.03
76713;BMP280;65640;43.154;25.658;2023-06-22T08:43:22;100972.91;;;31.28
76713;BMP280;65640;43.154;25.658;2023-06-22T08:45:47;100972.25;;;31.20
76713;BMP280;65640;43.154;25.658;2023-06-22T08:48:13;100972.25;;;31.20
76713;BMP280;65640;43.154;25.658;2023-06-22T08:50:39;100969.66;;;31.10
76713;BMP280;65640;43.154;25.658;2023-06-22T08:53:06;100970.38;;;31.14
76713;BMP280;65640;43.154;25.658;2023-06-22T08:55:31;100970.63;;;31.26
76713;BMP280;65640;43.154;25.658;2023-06-22T08:57:57;100965.72;;;31.45
76713;BMP280;65640;43.154;25.658;2023-06-22T09:00:22;100968.84;;;31.70
76713;BMP280;65640;43.154;25.658;2023-06-22T09:02:48;100964.13;;;31.47
76713;BMP280;65640;43.154;25.658;2023-06-22T09:05:14;100973.38;;;31.23
76713;BMP280;65640;43.154;25.658;2023-06-22T09:07:39;100972.28;;;31.17
76713;BMP280;65640;43.154;25.658;2023-06-22T09:10:05;100966.19;;;31.09
76713;BMP280;65640;43.154;25.658;2023-06-22T09:12:32;100960.59;;;30.93
76713;BMP280;65640;43.154;25.658;2023-06-22T09:15:00;100965.34;;;31.16
76713;BMP280;65640;43.154;25.658;2023-06-22T09:17:26;100959.84;;;30.89
76713;BMP280;65640;43.154;25.658;2023-06-22T09:19:52;100958.66;;;30.94
76713;BMP280;65640;43.154;25.658;2023-06-22T09:22:17;100961.13;;;31.42
76713;BMP280;65640;43.154;25.658;2023-06-22T09:24:43;100956.06;;;31.70
76713;BMP280;65640;43.154;25.658;2023-06-22T09:27:08;100960.41;;;31.87
76713;BMP280;65640;43.154;25.658;2023-06-22T09:29:33;100969.44;;;32.04
76713;BMP280;65640;43.154;25.658;2023-06-22T09:32:00;100963.13;;;32.11
76713;BMP280;65640;43.154;25.658;2023-06-22T09:34:26;100960.22;;;31.75
76713;BMP280;65640;43.154;25.658;2023-06-22T09:36:51;100959.72;;;31.30
76713;BMP280;65640;43.154;25.658;2023-06-22T09:39:18;100967.34;;;31.39
76713;BMP280;65640;43.154;25.658;2023-06-22T09:41:43;100958.91;;;31.06
76713;BMP280;65640;43.154;25.658;2023-06-22T09:44:09;100959.34;;;31.01
76713;BMP280;65640;43.154;25.658;2023-06-22T09:46:34;100952.56;;;31.16
76713;BMP280;65640;43.154;25.658;2023-06-22T09:49:00;100957.44;;;31.28
76713;BMP280;65640;43.154;25.658;2023-06-22T09:51:25;100943.94;;;31.25
76713;BMP280;65640;43.154;25.658;2023-06-22T09:53:51;100948.66;;;31.48
76713;BMP280;65640;43.154;25.658;2023-06-22T09:56:17;100943.22;;;31.51
76713;BMP280;65640;43.154;25.658;2023-06-22T09:58:43;100953.88;;;31.35
76713;BMP280;65640;43.154;25.658;2023-06-22T10:01:09;100942.72;;;31.56
76713;BMP280;65640;43.154;25.658;2023-06-22T10:03:35;100937.97;;;31.87
76713;BMP280;65640;43.154;25.658;2023-06-22T10:06:01;100942.97;;;32.12
76713;BMP280;65640;43.154;25.658;2023-06-22T10:08:27;100941.03;;;32.12
76713;BMP280;65640;43.154;25.658;2023-06-22T10:10:52;100939.56;;;32.08
76713;BMP280;65640;43.154;25.658;2023-06-22T10:13:18;100934.97;;;32.05
76713;BMP280;65640;43.154;25.658;2023-06-22T10:15:44;100935.72;;;31.82
76713;BMP280;65640;43.154;25.658;2023-06-22T10:18:15;100939.91;;;32.10
76713;BMP280;65640;43.154;25.658;2023-06-22T10:20:41;100944.72;;;32.41
76713;BMP280;65640;43.154;25.658;2023-06-22T10:23:07;100934.16;;;32.66
76713;BMP280;65640;43.154;25.658;2023-06-22T10:25:32;100935.88;;;32.60
76713;BMP280;65640;43.154;25.658;2023-06-22T10:27:57;100938.34;;;32.51
76713;BMP280;65640;43.154;25.658;2023-06-22T10:30:23;100940.81;;;32.23
76713;BMP280;65640;43.154;25.658;2023-06-22T10:32:48;100938.34;;;31.89
76713;BMP280;65640;43.154;25.658;2023-06-22T10:35:14;100934.91;;;31.85
76713;BMP280;65640;43.154;25.658;2023-06-22T10:37:44;100931.91;;;32.22
76713;BMP280;65640;43.154;25.658;2023-06-22T10:40:12;100930.34;;;32.44
76713;BMP280;65640;43.154;25.658;2023-06-22T10:42:38;100930.28;;;32.28
76713;BMP280;65640;43.154;25.658;2023-06-22T10:45:04;100916.22;;;32.53
76713;BMP280;65640;43.154;25.658;2023-06-22T10:47:29;100914.72;;;32.88
76713;BMP280;65640;43.154;25.658;2023-06-22T10:49:55;100918.03;;;32.59
76713;BMP280;65640;43.154;25.658;2023-06-22T10:52:20;100913.53;;;32.89
76713;BMP280;65640;43.154;25.658;2023-06-22T10:54:45;100911.28;;;33.03
76713;BMP280;65640;43.154;25.658;2023-06-22T10:57:11;100908.09;;;32.89
76713;BMP280;65640;43.154;25.658;2023-06-22T10:59:36;100906.44;;;33.11
76713;BMP280;65640;43.154;25.658;2023-06-22T11:02:02;100904.78;;;33.33
76713;BMP280;65640;43.154;25.658;2023-06-22T11:04:27;100901.50;;;33.54
76713;BMP280;65640;43.154;25.658;2023-06-22T11:06:53;100898.28;;;33.75
76713;BMP280;65640;43.154;25.658;2023-06-22T11:09:18;100901.81;;;33.88
76713;BMP280;65640;43.154;25.658;2023-06-22T11:11:51;100896.84;;;33.99
76713;BMP280;65640;43.154;25.658;2023-06-22T11:14:19;100897.69;;;34.25
76713;BMP280;65640;43.154;25.658;2023-06-22T11:16:44;100900.97;;;34.33
76713;BMP280;65640;43.154;25.658;2023-06-22T11:19:11;100902.06;;;34.35
76713;BMP280;65640;43.154;25.658;2023-06-22T11:21:36;100906.19;;;33.98
76713;BMP280;65640;43.154;25.658;2023-06-22T11:24:02;100904.88;;;33.90
76713;BMP280;65640;43.154;25.658;2023-06-22T11:26:27;100903.94;;;34.09
76713;BMP280;65640;43.154;25.658;2023-06-22T11:28:53;100902.66;;;33.85
76713;BMP280;65640;43.154;25.658;2023-06-22T11:31:19;100908.38;;;33.75
76713;BMP280;65640;43.154;25.658;2023-06-22T11:33:44;100906.75;;;33.77
76713;BMP280;65640;43.154;25.658;2023-06-22T11:36:11;100900.66;;;34.02
76713;BMP280;65640;43.154;25.658;2023-06-22T11:38:37;100894.63;;;34.23
76713;BMP280;65640;43.154;25.658;2023-06-22T11:41:08;100896.91;;;34.25
76713;BMP280;65640;43.154;25.658;2023-06-22T11:43:34;100902.00;;;34.10
76713;BMP280;65640;43.154;25.658;2023-06-22T11:46:01;100901.63;;;33.95
76713;BMP280;65640;43.154;25.658;2023-06-22T11:48:28;100903.09;;;34.13
76713;BMP280;65640;43.154;25.658;2023-06-22T11:50:53;100896.66;;;34.06
76713;BMP280;65640;43.154;25.658;2023-06-22T11:53:21;100896.06;;;33.86
76713;BMP280;65640;43.154;25.658;2023-06-22T11:55:47;100884.56;;;33.95
76713;BMP280;65640;43.154;25.658;2023-06-22T11:58:13;100877.53;;;33.81
76713;BMP280;65640;43.154;25.658;2023-06-22T12:00:38;100882.88;;;34.14
76713;BMP280;65640;43.154;25.658;2023-06-22T12:03:04;100874.66;;;34.42
76713;BMP280;65640;43.154;25.658;2023-06-22T12:05:29;100881.75;;;34.52
76713;BMP280;65640;43.154;25.658;2023-06-22T12:07:55;100872.44;;;33.83
76713;BMP280;65640;43.154;25.658;2023-06-22T12:10:26;100874.44;;;33.95
76713;BMP280;65640;43.154;25.658;2023-06-22T12:12:53;100875.19;;;34.50
76713;BMP280;65640;43.154;25.658;2023-06-22T12:15:19;100874.09;;;34.35
76713;BMP280;65640;43.154;25.658;2023-06-22T12:17:44;100872.28;;;34.32
76713;BMP280;65640;43.154;25.658;2023-06-22T12:20:10;100868.00;;;34.31
76713;BMP280;65640;43.154;25.658;2023-06-22T12:22:35;100867.84;;;34.63
76713;BMP280;65640;43.154;25.658;2023-06-22T12:25:03;100865.19;;;34.59
76713;BMP280;65640;43.154;25.658;2023-06-22T12:27:28;100864.63;;;34.90
76713;BMP280;65640;43.154;25.658;2023-06-22T12:29:56;100868.44;;;34.67
76713;BMP280;65640;43.154;25.658;2023-06-22T12:32:21;100867.72;;;34.54
76713;BMP280;65640;43.154;25.658;2023-06-22T12:34:46;100866.94;;;33.99
76713;BMP280;65640;43.154;25.658;2023-06-22T12:37:12;100874.31;;;33.86
76713;BMP280;65640;43.154;25.658;2023-06-22T12:39:37;100870.72;;;33.61
76713;BMP280;65640;43.154;25.658;2023-06-22T12:42:03;100871.41;;;33.93
76713;BMP280;65640;43.154;25.658;2023-06-22T12:44:28;100869.94;;;34.18
76713;BMP280;65640;43.154;25.658;2023-06-22T12:46:53;100857.25;;;34.52
76713;BMP280;65640;43.154;25.658;2023-06-22T12:49:19;100852.03;;;34.83
76713;BMP280;65640;43.154;25.658;2023-06-22T12:51:45;100854.22;;;34.75
76713;BMP280;65640;43.154;25.658;2023-06-22T12:54:11;100852.38;;;34.60
76713;BMP280;65640;43.154;25.658;2023-06-22T12:56:37;100849.09;;;34.40
76713;BMP280;65640;43.154;25.658;2023-06-22T12:59:06;100852.38;;;34.85
76713;BMP280;65640;43.154;25.658;2023-06-22T13:01:31;100846.59;;;34.83
76713;BMP280;65640;43.154;25.658;2023-06-22T13:03:58;100842.00;;;34.55
76713;BMP280;65640;43.154;25.658;2023-06-22T13:06:24;100840.72;;;34.59
76713;BMP280;65640;43.154;25.658;2023-06-22T13:08:50;100841.94;;;34.83
76713;BMP280;65640;43.154;25.658;2023-06-22T13:11:15;100837.44;;;34.77
76713;BMP280;65640;43.154;25.658;2023-06-22T13:13:41;100835.13;;;34.88
76713;BMP280;65640;43.154;25.658;2023-06-22T13:16:07;100835.56;;;34.74
76713;BMP280;65640;43.154;25.658;2023-06-22T13:18:32;100829.59;;;34.66
76713;BMP280;65640;43.154;25.658;2023-06-22T13:21:01;100829.94;;;34.68
76713;BMP280;65640;43.154;25.658;2023-06-22T13:23:27;100831.09;;;34.93
76713;BMP280;65640;43.154;25.658;2023-06-22T13:25:52;100826.97;;;35.01
76713;BMP280;65640;43.154;25.658;2023-06-22T13:28:19;100828.31;;;34.83
76713;BMP280;65640;43.154;25.658;2023-06-22T13:30:46;100828.53;;;34.51
76713;BMP280;65640;43.154;25.658;2023-06-22T13:33:13;100829.50;;;34.70
76713;BMP280;65640;43.154;25.658;2023-06-22T13:35:38;100823.25;;;34.95
76713;BMP280;65640;43.154;25.658;2023-06-22T13:38:05;100821.91;;;35.12
76713;BMP280;65640;43.154;25.658;2023-06-22T13:40:30;100820.03;;;34.62